Piney Point, Texas
Current Conditions -  °F | °C
As of 4:15 AM on Monday 26 Jan 2015 (Local Time) from KMCJ Reporting Station
Clear Clear  
Wind Chill: 54°   Ceiling: Unl
Heat Index: 54°   Visibility: 10mi
Dew Point: 25°   Wind: 0mph
Humidity: 33%   Direction: NA
Pressure: 30.13"   Gusts: NA
Location:  29.7698°N, 95.5164°W
Report Text: KMCJ 261015Z AUTO 00000KT 10SM CLR 12/M04 A3013 RMK AO1
Loading
Personal Weather Stations






























Interactive Weather Map New forecast layout! Learn more

10-Day Weather Forecast

Advertisements
Track Severe Weather on mobile